Time;durP1;ratioP1;P1;durP2;ratioP2;P2;SDS_P1;SDS_P2;PMS_P1;PMS_P2;Temp;Humidity;BMP_temperature;BMP_pressure;BME280_temperature;BME280_humidity;BME280_pressure;Samples;Min_cycle;Max_cycle;Signal;HPM_P1;HPM_P2
2023/10/14 00:01:53;;;;;;;4.63;2.28;;;;;;;;;;5057588;28;20052;-58
2023/10/14 00:04:26;;;;;;;2.38;2.17;;;;;;;;;;5058085;28;20455;-59
2023/10/14 00:06:57;;;;;;;2.30;2.20;;;;;;;;;;5058761;28;20088;-59
2023/10/14 00:09:33;;;;;;;2.88;2.67;;;;;;;;;;5057780;28;20759;-59
2023/10/14 00:12:12;;;;;;;2.63;2.40;;;;;;;;;;5056711;28;20052;-59
2023/10/14 00:14:43;;;;;;;2.40;2.25;;;;;;;;;;5057630;28;20041;-58
2023/10/14 00:17:14;;;;;;;2.22;2.03;;;;;;;;;;5059885;28;20044;-58
2023/10/14 00:19:46;;;;;;;4.10;2.67;;;;;;;;;;5055133;28;20355;-60
2023/10/14 00:22:14;;;;;;;3.00;2.20;;;;;;;;;;5059155;28;20481;-58
2023/10/14 00:24:43;;;;;;;2.15;1.98;;;;;;;;;;5060151;28;20052;-58
2023/10/14 00:27:13;;;;;;;2.22;2.10;;;;;;;;;;5058786;28;20123;-58
2023/10/14 00:29:41;;;;;;;2.72;2.25;;;;;;;;;;5056570;28;20080;-59
2023/10/14 00:32:10;;;;;;;2.45;2.25;;;;;;;;;;5061697;28;20556;-58
2023/10/14 00:34:38;;;;;;;2.35;2.20;;;;;;;;;;5056321;28;20102;-59
2023/10/14 00:37:08;;;;;;;2.20;2.00;;;;;;;;;;5058665;28;20044;-58
2023/10/14 00:39:37;;;;;;;2.00;1.90;;;;;;;;;;5056935;28;20421;-58
2023/10/14 00:42:08;;;;;;;2.47;2.28;;;;;;;;;;5062287;28;20045;-58
2023/10/14 00:44:39;;;;;;;2.45;2.25;;;;;;;;;;5057504;28;20532;-59
2023/10/14 00:47:15;;;;;;;1.80;1.70;;;;;;;;;;5056715;28;20064;-58
2023/10/14 00:49:44;;;;;;;2.50;2.30;;;;;;;;;;5057612;28;20569;-59
2023/10/14 00:52:18;;;;;;;2.42;2.22;;;;;;;;;;5060325;28;20041;-58
2023/10/14 00:54:58;;;;;;;2.30;2.10;;;;;;;;;;5054946;28;20048;-59
2023/10/14 00:57:38;;;;;;;2.30;2.10;;;;;;;;;;5058829;28;20048;-59
2023/10/14 01:00:11;;;;;;;2.25;2.05;;;;;;;;;;5053765;28;20527;-59
2023/10/14 01:02:39;;;;;;;2.40;2.20;;;;;;;;;;5058354;28;20125;-59
2023/10/14 01:05:13;;;;;;;2.10;2.00;;;;;;;;;;5059163;28;20409;-59
2023/10/14 01:07:42;;;;;;;2.27;2.10;;;;;;;;;;5058681;28;20076;-59
2023/10/14 01:10:12;;;;;;;2.92;2.05;;;;;;;;;;5056332;28;20057;-59
2023/10/14 01:12:44;;;;;;;2.38;2.17;;;;;;;;;;5058283;28;20059;-59
2023/10/14 01:15:20;;;;;;;2.35;2.20;;;;;;;;;;5054321;28;20519;-58
2023/10/14 01:17:52;;;;;;;3.20;2.42;;;;;;;;;;5056344;28;20505;-59
2023/10/14 01:20:37;;;;;;;3.40;2.22;;;;;;;;;;5054530;28;20256;-58
2023/10/14 01:23:14;;;;;;;2.60;2.40;;;;;;;;;;5054012;28;20052;-59
2023/10/14 01:25:47;;;;;;;4.25;2.45;;;;;;;;;;5055506;28;20048;-58
2023/10/14 01:28:21;;;;;;;2.53;2.33;;;;;;;;;;5057874;28;20215;-58
2023/10/14 01:31:11;;;;;;;3.92;2.40;;;;;;;;;;5053592;28;20040;-58
2023/10/14 01:33:40;;;;;;;3.25;2.20;;;;;;;;;;5060108;28;20043;-59
2023/10/14 01:36:11;;;;;;;2.85;2.65;;;;;;;;;;5058926;28;20182;-59
2023/10/14 01:38:41;;;;;;;2.63;2.42;;;;;;;;;;5056303;28;20033;-58
2023/10/14 01:41:10;;;;;;;2.53;2.33;;;;;;;;;;5054190;28;20036;-58
2023/10/14 01:43:39;;;;;;;4.72;2.72;;;;;;;;;;5058246;28;20127;-58
2023/10/14 01:46:09;;;;;;;2.42;2.22;;;;;;;;;;5055048;28;20135;-59
2023/10/14 01:48:39;;;;;;;3.00;2.70;;;;;;;;;;5056463;28;20076;-59
2023/10/14 01:51:07;;;;;;;2.50;2.30;;;;;;;;;;5054944;28;20055;-59
2023/10/14 01:53:38;;;;;;;2.30;2.10;;;;;;;;;;5057891;28;20528;-58
2023/10/14 01:56:08;;;;;;;2.20;2.10;;;;;;;;;;5051074;28;20072;-59
2023/10/14 01:58:37;;;;;;;2.58;2.38;;;;;;;;;;5057701;28;20044;-59
2023/10/14 02:01:11;;;;;;;3.95;2.47;;;;;;;;;;5053411;28;20053;-58
2023/10/14 02:03:43;;;;;;;2.60;2.40;;;;;;;;;;5054373;28;20049;-60
2023/10/14 02:06:16;;;;;;;3.08;2.40;;;;;;;;;;5056795;28;20069;-58
2023/10/14 02:08:45;;;;;;;2.60;2.40;;;;;;;;;;5059852;28;20049;-59
2023/10/14 02:11:20;;;;;;;2.75;2.55;;;;;;;;;;5054957;28;20044;-58
2023/10/14 02:13:50;;;;;;;2.35;2.15;;;;;;;;;;5061495;28;20110;-59
2023/10/14 02:16:24;;;;;;;3.70;2.58;;;;;;;;;;5059746;28;20038;-58
2023/10/14 02:19:00;;;;;;;2.13;2.03;;;;;;;;;;5059880;28;20045;-58
2023/10/14 02:21:33;;;;;;;2.50;2.30;;;;;;;;;;5058237;28;20052;-58
2023/10/14 02:24:04;;;;;;;4.97;2.53;;;;;;;;;;5063772;28;20548;-57
2023/10/14 02:26:34;;;;;;;2.72;2.30;;;;;;;;;;5060086;28;20060;-58
2023/10/14 02:29:06;;;;;;;2.72;2.47;;;;;;;;;;5062337;28;20072;-59
2023/10/14 02:31:36;;;;;;;3.90;2.10;;;;;;;;;;5060313;28;20110;-56
2023/10/14 02:34:06;;;;;;;4.00;2.33;;;;;;;;;;5060762;28;20136;-60
2023/10/14 02:36:36;;;;;;;2.33;2.22;;;;;;;;;;5061667;28;20048;-59
2023/10/14 02:39:11;;;;;;;2.65;1.98;;;;;;;;;;5062023;28;20048;-59
2023/10/14 02:41:44;;;;;;;2.33;2.20;;;;;;;;;;5060795;28;20044;-59
2023/10/14 02:44:28;;;;;;;2.20;2.00;;;;;;;;;;5061304;28;20045;-59
2023/10/14 02:47:01;;;;;;;2.90;2.30;;;;;;;;;;5061166;28;20168;-56
2023/10/14 02:49:35;;;;;;;3.58;2.25;;;;;;;;;;5059978;28;20061;-58
2023/10/14 02:52:08;;;;;;;2.10;2.00;;;;;;;;;;5061704;28;20045;-59
2023/10/14 02:54:40;;;;;;;3.03;2.40;;;;;;;;;;5059635;28;20053;-61
2023/10/14 02:57:23;;;;;;;2.28;2.10;;;;;;;;;;5056430;28;20498;-58
2023/10/14 02:59:55;;;;;;;2.60;2.38;;;;;;;;;;5058547;28;20144;-58
2023/10/14 03:02:26;;;;;;;2.10;2.00;;;;;;;;;;5056689;28;20398;-59
2023/10/14 03:05:08;;;;;;;2.38;2.20;;;;;;;;;;5060021;28;20454;-59
2023/10/14 03:07:50;;;;;;;2.80;2.30;;;;;;;;;;5057456;28;20041;-58
2023/10/14 03:10:28;;;;;;;2.40;2.20;;;;;;;;;;5058806;28;20045;-57
2023/10/14 03:12:58;;;;;;;2.30;2.15;;;;;;;;;;5058308;28;20194;-57
2023/10/14 03:15:31;;;;;;;2.22;2.03;;;;;;;;;;5058378;28;20052;-58
2023/10/14 03:18:01;;;;;;;6.07;2.30;;;;;;;;;;5062796;28;20052;-57
2023/10/14 03:20:37;;;;;;;1.90;1.80;;;;;;;;;;5057660;28;20417;-58
2023/10/14 03:23:10;;;;;;;2.30;2.20;;;;;;;;;;5056374;28;20538;-59
2023/10/14 03:25:39;;;;;;;2.58;2.38;;;;;;;;;;5054456;28;20041;-58
2023/10/14 03:28:14;;;;;;;2.60;2.40;;;;;;;;;;5061906;28;20037;-58
2023/10/14 03:30:45;;;;;;;;;;;;;;;;;;5055014;28;20047;-58
2023/10/14 03:33:14;;;;;;;2.72;2.53;;;;;;;;;;5057498;28;20389;-58
2023/10/14 03:35:54;;;;;;;3.10;2.20;;;;;;;;;;5056662;28;20109;-58
2023/10/14 03:38:39;;;;;;;2.20;1.98;;;;;;;;;;5062042;28;20048;-59
2023/10/14 03:41:16;;;;;;;2.63;2.42;;;;;;;;;;5054636;28;20497;-57
2023/10/14 03:43:54;;;;;;;2.25;2.05;;;;;;;;;;5057432;28;20441;-58
2023/10/14 03:46:31;;;;;;;3.33;2.38;;;;;;;;;;5054194;28;20059;-58
2023/10/14 03:49:06;;;;;;;2.17;2.08;;;;;;;;;;5060036;28;20045;-58
2023/10/14 03:51:38;;;;;;;1.95;1.85;;;;;;;;;;5058055;28;20234;-58
2023/10/14 03:54:08;;;;;;;2.85;2.08;;;;;;;;;;5058643;28;20040;-59
2023/10/14 03:56:38;;;;;;;2.15;1.95;;;;;;;;;;5055969;28;20480;-58
2023/10/14 03:59:12;;;;;;;2.78;1.63;;;;;;;;;;5055160;28;20124;-59
2023/10/14 04:01:44;;;;;;;2.35;2.15;;;;;;;;;;5055799;28;20100;-61
2023/10/14 04:04:18;;;;;;;2.65;1.90;;;;;;;;;;5055073;28;20989;-58
2023/10/14 04:06:52;;;;;;;3.55;2.08;;;;;;;;;;5060511;28;20052;-58
2023/10/14 04:09:24;;;;;;;1.95;1.85;;;;;;;;;;5056255;28;20049;-58
2023/10/14 04:11:59;;;;;;;3.25;2.60;;;;;;;;;;5058948;28;20041;-58
2023/10/14 04:14:35;;;;;;;1.95;1.85;;;;;;;;;;5057791;28;20048;-57
2023/10/14 04:17:19;;;;;;;2.70;2.50;;;;;;;;;;5060470;28;20480;-57
2023/10/14 04:19:53;;;;;;;2.53;2.00;;;;;;;;;;5059054;28;20045;-57
2023/10/14 04:22:31;;;;;;;2.42;2.15;;;;;;;;;;5062014;28;20045;-58
2023/10/14 04:25:16;;;;;;;2.38;2.13;;;;;;;;;;5039031;28;20052;-58
2023/10/14 04:27:56;;;;;;;2.38;2.17;;;;;;;;;;5057343;28;20052;-58
2023/10/14 04:30:32;;;;;;;3.97;2.08;;;;;;;;;;5056937;28;20072;-58
2023/10/14 04:33:18;;;;;;;2.40;2.20;;;;;;;;;;5057113;28;20509;-59
2023/10/14 04:36:09;;;;;;;3.05;2.22;;;;;;;;;;5058142;28;20126;-59
2023/10/14 04:38:43;;;;;;;2.70;2.50;;;;;;;;;;5060876;28;20058;-60
2023/10/14 04:41:14;;;;;;;2.10;2.00;;;;;;;;;;5052680;28;20552;-59
2023/10/14 04:46:46;;;;;;;2.40;2.30;;;;;;;;;;5055842;28;20045;-59
2023/10/14 04:49:17;;;;;;;2.30;2.10;;;;;;;;;;5059626;28;20048;-59
2023/10/14 04:51:48;;;;;;;2.88;2.60;;;;;;;;;;5054825;28;20330;-59
2023/10/14 04:54:20;;;;;;;2.85;2.60;;;;;;;;;;5057924;28;20053;-58
2023/10/14 04:56:49;;;;;;;5.38;2.67;;;;;;;;;;5059767;28;20044;-59
2023/10/14 04:59:22;;;;;;;3.78;2.80;;;;;;;;;;5061167;28;20238;-59
2023/10/14 05:01:52;;;;;;;2.85;2.58;;;;;;;;;;5054733;28;20075;-59
2023/10/14 05:04:22;;;;;;;2.92;2.67;;;;;;;;;;5059192;28;20420;-60
2023/10/14 05:06:52;;;;;;;3.90;2.83;;;;;;;;;;5059640;28;20044;-59
2023/10/14 05:09:30;;;;;;;3.60;2.65;;;;;;;;;;5060206;28;20512;-59
2023/10/14 05:12:00;;;;;;;2.65;2.45;;;;;;;;;;5059388;28;20133;-60
2023/10/14 05:14:36;;;;;;;3.08;2.65;;;;;;;;;;5060603;28;20059;-60
2023/10/14 05:17:16;;;;;;;2.13;2.03;;;;;;;;;;5055570;28;20037;-59
2023/10/14 05:19:47;;;;;;;4.07;2.28;;;;;;;;;;5056626;28;20641;-60
2023/10/14 05:22:21;;;;;;;2.28;2.08;;;;;;;;;;5058390;28;20044;-59
2023/10/14 05:24:52;;;;;;;2.72;2.50;;;;;;;;;;5057605;28;20528;-59
2023/10/14 05:27:21;;;;;;;2.47;2.28;;;;;;;;;;5057023;28;20059;-58
2023/10/14 05:29:51;;;;;;;2.63;2.40;;;;;;;;;;5056802;28;20048;-59
2023/10/14 05:32:30;;;;;;;2.30;2.10;;;;;;;;;;5061091;28;20247;-59
2023/10/14 05:35:00;;;;;;;3.00;2.65;;;;;;;;;;5053458;28;20044;-60
2023/10/14 05:37:28;;;;;;;4.18;2.80;;;;;;;;;;5058870;28;20455;-58
2023/10/14 05:39:56;;;;;;;2.65;2.30;;;;;;;;;;5057453;28;20990;-60
2023/10/14 05:42:25;;;;;;;2.60;2.40;;;;;;;;;;5054455;28;20497;-59
2023/10/14 05:44:57;;;;;;;4.90;2.22;;;;;;;;;;5057231;28;20399;-58
2023/10/14 05:47:28;;;;;;;2.30;2.20;;;;;;;;;;5061076;28;20446;-58
2023/10/14 05:49:57;;;;;;;2.67;2.47;;;;;;;;;;5059293;28;20172;-59
2023/10/14 05:52:26;;;;;;;3.90;2.67;;;;;;;;;;5061834;28;20143;-61
2023/10/14 05:54:55;;;;;;;2.80;2.45;;;;;;;;;;5061985;28;20040;-59
2023/10/14 05:57:24;;;;;;;4.13;2.65;;;;;;;;;;5061620;28;20497;-59
2023/10/14 05:59:53;;;;;;;3.53;2.60;;;;;;;;;;5060210;28;20150;-60
2023/10/14 06:02:25;;;;;;;2.40;2.30;;;;;;;;;;5060641;28;20052;-60
2023/10/14 06:04:55;;;;;;;2.28;2.17;;;;;;;;;;5061177;28;20056;-59
2023/10/14 06:07:23;;;;;;;2.30;2.20;;;;;;;;;;5063313;28;20168;-57
2023/10/14 06:09:52;;;;;;;2.65;2.45;;;;;;;;;;5061062;28;20055;-57
2023/10/14 06:12:20;;;;;;;2.72;2.53;;;;;;;;;;5060765;28;20050;-57
2023/10/14 06:14:49;;;;;;;2.72;2.35;;;;;;;;;;5059496;28;20047;-58
2023/10/14 06:17:17;;;;;;;3.10;2.40;;;;;;;;;;5064304;28;20041;-59
2023/10/14 06:19:46;;;;;;;3.20;2.28;;;;;;;;;;5062023;28;20401;-58
2023/10/14 06:22:15;;;;;;;3.28;2.72;;;;;;;;;;5062257;28;20068;-58
2023/10/14 06:24:44;;;;;;;2.90;2.70;;;;;;;;;;5061118;28;20134;-60
2023/10/14 06:27:20;;;;;;;3.20;2.90;;;;;;;;;;5062692;28;20041;-58
2023/10/14 06:29:50;;;;;;;4.53;2.58;;;;;;;;;;5061295;28;20052;-59
2023/10/14 06:32:19;;;;;;;3.95;2.50;;;;;;;;;;5060120;28;20075;-60
2023/10/14 06:34:57;;;;;;;2.40;2.20;;;;;;;;;;5060712;28;20518;-59
2023/10/14 06:37:29;;;;;;;3.55;2.55;;;;;;;;;;5061522;28;20048;-59
2023/10/14 06:39:58;;;;;;;6.30;2.40;;;;;;;;;;5058640;28;20585;-58
2023/10/14 06:42:26;;;;;;;4.05;2.00;;;;;;;;;;5059427;28;20493;-59
2023/10/14 06:44:57;;;;;;;2.88;2.67;;;;;;;;;;5060362;28;20478;-59
2023/10/14 06:47:27;;;;;;;2.53;2.28;;;;;;;;;;5059873;28;20131;-59
2023/10/14 06:49:56;;;;;;;3.70;2.67;;;;;;;;;;5062154;28;20045;-61
2023/10/14 06:52:24;;;;;;;3.30;2.17;;;;;;;;;;5063984;28;20612;-57
2023/10/14 06:54:54;;;;;;;2.80;2.60;;;;;;;;;;5062008;28;20485;-58
2023/10/14 06:57:23;;;;;;;3.88;2.60;;;;;;;;;;5060572;28;20612;-59
2023/10/14 06:59:53;;;;;;;2.42;2.22;;;;;;;;;;5054909;28;20040;-59
2023/10/14 07:02:22;;;;;;;4.47;2.20;;;;;;;;;;5060657;28;20386;-60
2023/10/14 07:04:50;;;;;;;3.92;2.63;;;;;;;;;;5062104;28;20060;-59
2023/10/14 07:07:19;;;;;;;2.20;2.00;;;;;;;;;;5061145;28;20049;-63
2023/10/14 07:09:48;;;;;;;3.53;2.60;;;;;;;;;;5062787;28;20572;-63
2023/10/14 07:12:21;;;;;;;2.22;1.98;;;;;;;;;;5058800;28;20053;-62
2023/10/14 07:14:49;;;;;;;2.75;2.38;;;;;;;;;;5054264;28;20582;-60
2023/10/14 07:17:22;;;;;;;2.45;2.25;;;;;;;;;;5057154;28;20044;-60
2023/10/14 07:19:51;;;;;;;1.90;1.80;;;;;;;;;;5058942;28;20052;-61
2023/10/14 07:22:21;;;;;;;4.22;2.33;;;;;;;;;;5054564;28;20049;-61
2023/10/14 07:24:52;;;;;;;2.10;2.00;;;;;;;;;;5055093;28;20044;-61
2023/10/14 07:27:21;;;;;;;1.77;1.67;;;;;;;;;;5059638;28;20046;-60
2023/10/14 07:29:50;;;;;;;2.40;2.20;;;;;;;;;;5056513;28;20063;-60
2023/10/14 07:32:19;;;;;;;4.15;2.00;;;;;;;;;;5063478;28;20538;-61
2023/10/14 07:34:52;;;;;;;2.22;2.13;;;;;;;;;;5061038;28;20521;-61
2023/10/14 07:37:21;;;;;;;2.33;2.10;;;;;;;;;;5058613;28;20052;-61
2023/10/14 07:39:52;;;;;;;3.25;2.20;;;;;;;;;;5062250;28;20048;-60
2023/10/14 07:42:23;;;;;;;5.40;1.92;;;;;;;;;;5060266;28;20052;-59
2023/10/14 07:44:54;;;;;;;2.50;1.83;;;;;;;;;;5056906;28;20049;-61
2023/10/14 07:47:24;;;;;;;1.88;1.77;;;;;;;;;;5055186;28;20498;-61
2023/10/14 07:49:54;;;;;;;10.25;2.30;;;;;;;;;;5056631;28;21067;-60
2023/10/14 07:52:23;;;;;;;2.00;1.90;;;;;;;;;;5058985;28;20139;-63
2023/10/14 07:54:51;;;;;;;2.10;1.90;;;;;;;;;;5056092;28;20151;-62
2023/10/14 07:57:20;;;;;;;2.13;1.80;;;;;;;;;;5060424;28;20041;-62
2023/10/14 07:59:54;;;;;;;2.20;2.00;;;;;;;;;;5059893;28;20041;-61
2023/10/14 08:02:26;;;;;;;2.55;2.35;;;;;;;;;;5055951;28;20052;-61
2023/10/14 08:04:54;;;;;;;3.15;2.20;;;;;;;;;;5059325;28;20044;-61
2023/10/14 08:07:23;;;;;;;2.83;2.10;;;;;;;;;;5056641;28;20812;-60
2023/10/14 08:09:51;;;;;;;2.25;2.05;;;;;;;;;;5058494;28;20450;-61
2023/10/14 08:12:20;;;;;;;2.40;2.13;;;;;;;;;;5057220;28;20044;-61
2023/10/14 08:14:52;;;;;;;1.85;1.75;;;;;;;;;;5059576;28;20056;-60
2023/10/14 08:17:23;;;;;;;3.50;2.30;;;;;;;;;;5059174;28;20539;-59
2023/10/14 08:19:52;;;;;;;2.63;2.15;;;;;;;;;;5058655;28;20051;-60
2023/10/14 08:22:20;;;;;;;2.13;1.92;;;;;;;;;;5056250;28;20091;-59
2023/10/14 08:24:52;;;;;;;2.45;2.17;;;;;;;;;;5058239;28;20119;-60
2023/10/14 08:27:22;;;;;;;2.28;1.85;;;;;;;;;;5059909;28;20044;-61
2023/10/14 08:29:53;;;;;;;1.98;1.88;;;;;;;;;;5056487;28;20404;-60
2023/10/14 08:32:23;;;;;;;2.83;2.22;;;;;;;;;;5056982;28;20072;-58
2023/10/14 08:34:52;;;;;;;2.45;2.25;;;;;;;;;;5060938;28;20629;-59
2023/10/14 08:37:20;;;;;;;2.30;2.08;;;;;;;;;;5057108;28;20709;-60
2023/10/14 08:39:49;;;;;;;2.75;1.92;;;;;;;;;;5058228;28;20400;-62
2023/10/14 08:42:17;;;;;;;2.85;2.13;;;;;;;;;;5053842;28;20575;-62
2023/10/14 08:44:47;;;;;;;2.33;2.20;;;;;;;;;;5052969;28;20556;-60
2023/10/14 08:47:17;;;;;;;2.03;1.88;;;;;;;;;;5056201;28;20056;-59
2023/10/14 08:49:46;;;;;;;2.20;2.00;;;;;;;;;;5059911;28;20080;-60
2023/10/14 08:52:16;;;;;;;2.15;2.05;;;;;;;;;;5055998;28;20463;-60
2023/10/14 08:54:46;;;;;;;3.53;2.30;;;;;;;;;;5054520;28;20417;-60
2023/10/14 08:57:15;;;;;;;3.95;2.40;;;;;;;;;;5057479;28;20048;-61
2023/10/14 08:59:44;;;;;;;2.38;1.95;;;;;;;;;;5059068;28;20110;-60
2023/10/14 09:02:13;;;;;;;2.85;2.45;;;;;;;;;;5054776;28;20044;-60
2023/10/14 09:04:45;;;;;;;3.45;2.72;;;;;;;;;;5057424;28;20060;-59
2023/10/14 09:07:16;;;;;;;2.88;2.58;;;;;;;;;;5058742;28;20041;-59
2023/10/14 09:09:45;;;;;;;3.28;2.47;;;;;;;;;;5056592;28;20044;-60
2023/10/14 09:12:14;;;;;;;5.20;2.15;;;;;;;;;;5052239;28;20221;-60
2023/10/14 09:14:43;;;;;;;2.72;2.10;;;;;;;;;;5058491;28;20099;-59
2023/10/14 09:17:11;;;;;;;2.50;2.20;;;;;;;;;;5056126;28;20052;-59
2023/10/14 09:19:46;;;;;;;3.20;2.03;;;;;;;;;;5057400;28;20424;-60
2023/10/14 09:22:21;;;;;;;3.70;2.75;;;;;;;;;;5052773;28;20098;-63
2023/10/14 09:24:51;;;;;;;2.75;2.22;;;;;;;;;;5054310;28;20048;-60
2023/10/14 09:27:20;;;;;;;4.53;2.70;;;;;;;;;;5052768;28;20486;-61
2023/10/14 09:29:49;;;;;;;3.20;2.50;;;;;;;;;;5055860;28;20450;-60
2023/10/14 09:32:18;;;;;;;2.97;2.60;;;;;;;;;;5056869;28;20484;-60
2023/10/14 09:34:51;;;;;;;3.65;2.42;;;;;;;;;;5059131;28;20044;-63
2023/10/14 09:37:21;;;;;;;2.33;2.22;;;;;;;;;;5054633;28;20279;-64
2023/10/14 09:39:57;;;;;;;2.45;2.25;;;;;;;;;;5049713;28;20041;-64
2023/10/14 09:42:29;;;;;;;2.65;2.30;;;;;;;;;;5047942;28;20153;-62
2023/10/14 09:45:05;;;;;;;3.10;2.30;;;;;;;;;;5054918;28;20040;-63
2023/10/14 09:47:34;;;;;;;5.50;2.35;;;;;;;;;;5053889;28;20440;-64
2023/10/14 09:50:05;;;;;;;2.25;2.15;;;;;;;;;;5056700;28;20324;-62
2023/10/14 09:52:35;;;;;;;3.15;2.28;;;;;;;;;;5058562;28;20498;-63
2023/10/14 09:55:04;;;;;;;4.82;2.63;;;;;;;;;;5057810;28;20110;-63
2023/10/14 09:57:32;;;;;;;2.88;2.42;;;;;;;;;;5061730;28;20056;-62
2023/10/14 10:00:01;;;;;;;2.63;2.38;;;;;;;;;;5060322;28;20051;-63
2023/10/14 10:02:30;;;;;;;2.70;2.50;;;;;;;;;;5050047;28;20057;-62
2023/10/14 10:04:59;;;;;;;3.45;2.60;;;;;;;;;;5053580;28;20182;-62
2023/10/14 10:07:41;;;;;;;3.03;2.25;;;;;;;;;;5052718;28;20048;-63
2023/10/14 10:10:11;;;;;;;4.88;2.50;;;;;;;;;;5061818;28;20044;-62
2023/10/14 10:12:41;;;;;;;2.80;2.60;;;;;;;;;;5060763;28;20151;-63
2023/10/14 10:15:10;;;;;;;2.55;2.35;;;;;;;;;;5057168;28;20399;-64
2023/10/14 10:17:39;;;;;;;3.60;2.60;;;;;;;;;;5055316;28;21640;-62
2023/10/14 10:20:13;;;;;;;3.22;2.72;;;;;;;;;;5057588;28;20055;-61
2023/10/14 10:22:50;;;;;;;3.80;2.63;;;;;;;;;;5057293;28;20052;-62
2023/10/14 10:25:20;;;;;;;3.17;2.88;;;;;;;;;;5058186;28;20053;-62
2023/10/14 10:27:49;;;;;;;2.60;2.38;;;;;;;;;;5049936;28;20135;-64
2023/10/14 10:30:19;;;;;;;5.50;2.72;;;;;;;;;;5063714;28;20490;-61
2023/10/14 10:32:50;;;;;;;2.60;2.40;;;;;;;;;;5065249;28;20048;-62
2023/10/14 10:35:20;;;;;;;2.35;2.15;;;;;;;;;;5064605;28;20105;-62
2023/10/14 10:37:52;;;;;;;3.20;2.22;;;;;;;;;;5061856;28;20125;-62
2023/10/14 10:40:25;;;;;;;2.17;2.00;;;;;;;;;;5062165;28;20055;-62
2023/10/14 10:42:56;;;;;;;2.50;2.13;;;;;;;;;;5063172;28;20079;-62
2023/10/14 10:45:25;;;;;;;2.38;2.17;;;;;;;;;;5056836;28;20533;-62
2023/10/14 10:54:20;;;;;;;3.45;2.28;;;;;;;;;;5096834;27;20212;-63
2023/10/14 10:56:48;;;;;;;2.60;2.40;;;;;;;;;;5087581;28;20054;-63
2023/10/14 10:59:37;;;;;;;2.85;2.65;;;;;;;;;;5083779;28;20473;-66
2023/10/14 11:02:08;;;;;;;2.85;2.20;;;;;;;;;;5095702;28;20452;-68
2023/10/14 11:04:38;;;;;;;3.58;2.30;;;;;;;;;;5078319;28;20409;-68
2023/10/14 11:07:07;;;;;;;3.83;2.50;;;;;;;;;;5090134;28;20493;-67
2023/10/14 11:09:39;;;;;;;5.03;2.65;;;;;;;;;;5090142;28;20447;-67
2023/10/14 11:12:09;;;;;;;2.88;2.47;;;;;;;;;;5088723;28;20078;-68
2023/10/14 11:14:38;;;;;;;3.70;2.00;;;;;;;;;;5078644;28;20052;-70
2023/10/14 11:17:06;;;;;;;2.85;2.20;;;;;;;;;;5088154;28;20049;-67
2023/10/14 11:19:35;;;;;;;2.30;2.10;;;;;;;;;;5090431;28;20052;-67
2023/10/14 11:22:04;;;;;;;2.40;2.20;;;;;;;;;;5086824;28;20477;-67
2023/10/14 11:24:33;;;;;;;2.67;2.20;;;;;;;;;;5085793;28;20424;-68
2023/10/14 11:27:03;;;;;;;2.72;2.53;;;;;;;;;;5093855;28;20127;-67
2023/10/14 11:29:33;;;;;;;4.53;2.60;;;;;;;;;;5083714;28;20062;-68
2023/10/14 11:32:03;;;;;;;2.45;2.17;;;;;;;;;;5083666;28;20101;-67
2023/10/14 11:34:35;;;;;;;3.30;2.20;;;;;;;;;;5077974;28;20059;-69
2023/10/14 11:37:04;;;;;;;2.40;2.20;;;;;;;;;;5086866;28;20520;-68
2023/10/14 11:39:36;;;;;;;2.22;2.10;;;;;;;;;;5074955;28;20398;-68
2023/10/14 11:42:06;;;;;;;2.20;2.10;;;;;;;;;;5082452;28;20386;-68
2023/10/14 11:44:36;;;;;;;2.65;2.45;;;;;;;;;;5104760;27;20130;-68
2023/10/14 11:47:07;;;;;;;3.65;2.67;;;;;;;;;;5104817;28;20097;-69
2023/10/14 11:49:37;;;;;;;2.15;2.05;;;;;;;;;;5107842;28;20404;-66
2023/10/14 11:52:06;;;;;;;2.55;2.35;;;;;;;;;;5103199;28;20409;-66
2023/10/14 11:54:37;;;;;;;2.50;2.30;;;;;;;;;;5105171;28;20046;-65
2023/10/14 11:57:08;;;;;;;2.40;2.17;;;;;;;;;;5095381;28;20489;-67
2023/10/14 11:59:38;;;;;;;2.67;2.47;;;;;;;;;;5105796;28;20055;-68
2023/10/14 12:02:06;;;;;;;2.55;2.35;;;;;;;;;;5102741;28;20071;-66
2023/10/14 12:04:35;;;;;;;2.40;2.30;;;;;;;;;;5102211;27;20105;-67
2023/10/14 12:07:04;;;;;;;2.72;2.53;;;;;;;;;;5098060;28;20048;-67
2023/10/14 12:09:33;;;;;;;2.60;2.40;;;;;;;;;;5091793;28;20052;-70
2023/10/14 12:12:02;;;;;;;2.38;2.20;;;;;;;;;;5090084;28;20044;-67
2023/10/14 12:14:32;;;;;;;2.28;2.17;;;;;;;;;;5095923;28;20125;-67
2023/10/14 12:17:04;;;;;;;2.97;2.35;;;;;;;;;;5080478;28;20090;-67
2023/10/14 12:19:34;;;;;;;2.20;2.00;;;;;;;;;;5091076;28;20060;-68
2023/10/14 12:22:02;;;;;;;3.00;2.22;;;;;;;;;;5097677;28;20139;-67
2023/10/14 12:24:32;;;;;;;2.50;2.30;;;;;;;;;;5084075;28;20098;-69
2023/10/14 12:27:01;;;;;;;3.15;2.40;;;;;;;;;;5082676;28;20075;-69
2023/10/14 12:29:33;;;;;;;2.70;2.50;;;;;;;;;;5081080;28;20122;-68
2023/10/14 12:32:03;;;;;;;3.42;3.22;;;;;;;;;;5088198;28;20048;-68
2023/10/14 12:34:46;;;;;;;3.00;2.80;;;;;;;;;;5096317;28;20503;-69
2023/10/14 12:37:18;;;;;;;3.13;2.88;;;;;;;;;;5084721;28;20052;-68
2023/10/14 12:39:53;;;;;;;2.50;2.30;;;;;;;;;;5088715;28;20052;-70
2023/10/14 12:42:23;;;;;;;2.10;2.00;;;;;;;;;;5089802;28;20224;-69
2023/10/14 12:44:53;;;;;;;2.97;2.10;;;;;;;;;;5095809;28;20048;-69
2023/10/14 12:47:24;;;;;;;2.40;2.20;;;;;;;;;;5095844;28;20048;-70
2023/10/14 12:49:54;;;;;;;2.00;1.90;;;;;;;;;;5091401;28;20056;-70
2023/10/14 12:52:23;;;;;;;2.97;2.70;;;;;;;;;;5094058;28;20064;-69
2023/10/14 12:54:53;;;;;;;2.38;2.25;;;;;;;;;;5090026;28;20493;-69
2023/10/14 12:57:22;;;;;;;2.40;2.30;;;;;;;;;;5090522;28;20043;-70
2023/10/14 12:59:50;;;;;;;2.65;2.45;;;;;;;;;;5095123;28;20132;-69
2023/10/14 13:02:20;;;;;;;2.75;2.45;;;;;;;;;;5084281;28;20547;-68
2023/10/14 13:04:51;;;;;;;3.63;2.60;;;;;;;;;;5094782;28;20044;-70
2023/10/14 13:07:21;;;;;;;2.85;2.10;;;;;;;;;;5098988;28;20162;-69
2023/10/14 13:09:50;;;;;;;2.40;2.20;;;;;;;;;;5097566;28;20154;-68
2023/10/14 13:12:18;;;;;;;3.50;2.40;;;;;;;;;;5085590;28;20044;-70
2023/10/14 13:14:48;;;;;;;4.53;2.42;;;;;;;;;;5097109;27;20052;-70
2023/10/14 13:17:18;;;;;;;3.53;2.92;;;;;;;;;;5088453;28;20043;-69
2023/10/14 13:19:47;;;;;;;2.50;2.30;;;;;;;;;;5093892;28;20052;-71
2023/10/14 13:22:17;;;;;;;3.03;2.83;;;;;;;;;;5088756;28;20075;-68
2023/10/14 13:24:49;;;;;;;2.80;2.60;;;;;;;;;;5097928;28;20293;-71
2023/10/14 13:27:18;;;;;;;2.45;2.15;;;;;;;;;;5091797;28;20043;-73
2023/10/14 13:29:47;;;;;;;2.38;2.28;;;;;;;;;;5102804;28;20100;-72
2023/10/14 13:32:16;;;;;;;2.63;2.42;;;;;;;;;;5091946;28;20055;-72
2023/10/14 13:34:45;;;;;;;3.60;2.30;;;;;;;;;;5089472;28;20056;-71
2023/10/14 13:37:14;;;;;;;2.63;2.42;;;;;;;;;;5088404;28;20044;-73
2023/10/14 13:39:46;;;;;;;2.58;2.47;;;;;;;;;;5097486;28;20047;-70
2023/10/14 13:42:14;;;;;;;3.03;2.80;;;;;;;;;;5098106;28;20048;-73
2023/10/14 13:44:42;;;;;;;2.85;2.67;;;;;;;;;;5091557;28;20484;-71
2023/10/14 13:47:11;;;;;;;2.92;2.72;;;;;;;;;;5084712;28;20068;-68
2023/10/14 13:49:42;;;;;;;2.75;2.55;;;;;;;;;;5094747;28;20508;-68
2023/10/14 13:52:14;;;;;;;2.30;2.20;;;;;;;;;;5086033;28;20482;-68
2023/10/14 13:54:44;;;;;;;2.40;2.20;;;;;;;;;;5089069;28;20123;-68
2023/10/14 13:57:17;;;;;;;1.92;1.83;;;;;;;;;;5074573;28;20079;-69
2023/10/14 13:59:46;;;;;;;2.42;2.22;;;;;;;;;;5087414;28;20484;-69
2023/10/14 14:02:14;;;;;;;1.92;1.83;;;;;;;;;;5082208;28;20511;-68
2023/10/14 14:04:44;;;;;;;1.90;1.80;;;;;;;;;;5088569;28;20063;-69
2023/10/14 14:07:13;;;;;;;4.03;1.50;;;;;;;;;;5071094;28;20068;-69
2023/10/14 14:09:41;;;;;;;2.05;1.95;;;;;;;;;;5085305;28;20139;-71
2023/10/14 14:12:11;;;;;;;1.70;1.60;;;;;;;;;;5077402;28;20556;-69
2023/10/14 14:14:40;;;;;;;1.70;1.60;;;;;;;;;;5084229;28;20040;-67
2023/10/14 14:17:10;;;;;;;1.55;1.52;;;;;;;;;;5090945;28;20118;-66
2023/10/14 14:19:39;;;;;;;1.88;1.77;;;;;;;;;;5078432;28;20488;-66
2023/10/14 14:22:08;;;;;;;1.67;1.60;;;;;;;;;;5082060;28;20566;-67
2023/10/14 14:24:36;;;;;;;1.70;1.60;;;;;;;;;;5086684;28;20156;-67
2023/10/14 14:27:05;;;;;;;1.60;1.50;;;;;;;;;;5091604;28;20138;-66
2023/10/14 14:29:35;;;;;;;1.33;1.33;;;;;;;;;;5078299;28;20054;-66
2023/10/14 14:32:05;;;;;;;1.48;1.45;;;;;;;;;;5076408;28;20097;-68
2023/10/14 14:34:34;;;;;;;1.48;1.40;;;;;;;;;;5100209;27;20048;-67
2023/10/14 14:37:03;;;;;;;1.30;1.30;;;;;;;;;;5084917;28;20048;-68
2023/10/14 14:39:31;;;;;;;1.30;1.30;;;;;;;;;;5083852;28;20066;-68
2023/10/14 14:42:01;;;;;;;1.45;1.45;;;;;;;;;;5084992;28;20131;-66
2023/10/14 14:44:32;;;;;;;1.40;1.40;;;;;;;;;;5087020;28;20044;-68
2023/10/14 14:47:02;;;;;;;1.30;1.30;;;;;;;;;;5084112;28;20114;-67
2023/10/14 14:49:32;;;;;;;1.40;1.40;;;;;;;;;;5071839;28;20044;-68
2023/10/14 14:52:00;;;;;;;1.30;1.30;;;;;;;;;;5092340;28;20075;-71
2023/10/14 14:54:30;;;;;;;1.60;1.50;;;;;;;;;;5093275;27;20048;-68
2023/10/14 14:56:59;;;;;;;1.50;1.40;;;;;;;;;;5076460;28;20114;-67
2023/10/14 14:59:28;;;;;;;1.35;1.35;;;;;;;;;;5094615;28;20040;-69
2023/10/14 15:01:57;;;;;;;1.40;1.40;;;;;;;;;;5084628;28;20040;-67
2023/10/14 15:04:27;;;;;;;1.60;1.50;;;;;;;;;;5098508;27;20044;-68
2023/10/14 15:06:56;;;;;;;1.40;1.40;;;;;;;;;;5093460;28;20404;-68
2023/10/14 15:09:25;;;;;;;1.40;1.40;;;;;;;;;;5085284;28;20044;-68
2023/10/14 15:11:55;;;;;;;1.63;1.52;;;;;;;;;;5091072;28;20048;-67
2023/10/14 15:14:23;;;;;;;1.80;1.67;;;;;;;;;;5084240;28;20175;-70
2023/10/14 15:16:52;;;;;;;2.15;1.65;;;;;;;;;;5082938;28;20056;-68